createdAt,value
2019-05-06T00:02:20.681Z,4.09
2019-05-06T00:05:10.579Z,3.95
2019-05-06T00:08:00.323Z,3.89
2019-05-06T00:10:44.244Z,3.74
2019-05-06T00:13:34.457Z,4.02
2019-05-06T00:16:24.298Z,3.88
2019-05-06T00:19:14.215Z,3.69
2019-05-06T00:22:04.741Z,3.91
2019-05-06T00:28:24.509Z,3.74
2019-05-06T00:31:13.160Z,3.78
2019-05-06T00:34:00.851Z,3.81
2019-05-06T00:39:54.080Z,3.71
2019-05-06T00:42:41.498Z,3.68
2019-05-06T00:45:25.454Z,3.52
2019-05-06T00:48:15.292Z,3.58
2019-05-06T00:51:05.049Z,3.42
2019-05-06T00:56:55.055Z,3.57
2019-05-06T00:59:44.739Z,3.70
2019-05-06T01:02:27.540Z,3.55
2019-05-06T01:05:37.800Z,3.48
2019-05-06T01:08:19.717Z,3.58
2019-05-06T01:11:09.522Z,3.34
2019-05-06T01:17:07.026Z,3.67
2019-05-06T01:19:50.563Z,3.64
2019-05-06T01:22:40.284Z,3.59
2019-05-06T01:25:30.046Z,3.64
2019-05-06T01:28:27.537Z,3.62
2019-05-06T01:31:17.467Z,3.58
2019-05-06T01:34:07.508Z,3.62
2019-05-06T01:36:57.240Z,3.60
2019-05-06T01:40:05.884Z,3.59
2019-05-06T01:43:14.601Z,3.51
2019-05-06T01:46:04.746Z,3.52
2019-05-06T01:48:48.626Z,3.37
2019-05-06T01:51:38.760Z,3.42
2019-05-06T01:54:28.514Z,3.53
2019-05-06T01:57:18.287Z,3.56
2019-05-06T02:00:28.671Z,3.53
2019-05-06T02:05:55.477Z,3.44
2019-05-06T02:08:45.210Z,3.39
2019-05-06T02:11:29.005Z,3.30
2019-05-06T02:14:18.763Z,3.39
2019-05-06T02:17:03.460Z,3.34
2019-05-06T02:19:54.706Z,3.32
2019-05-06T02:22:57.401Z,3.22
2019-05-06T02:25:54.015Z,3.18
2019-05-06T02:28:38.739Z,3.22
2019-05-06T02:31:47.265Z,3.21
2019-05-06T02:34:36.669Z,3.18
2019-05-06T02:37:35.228Z,3.17
2019-05-06T02:46:48.873Z,3.33
2019-05-06T02:49:57.532Z,3.26
2019-05-06T02:52:40.110Z,3.27
2019-05-06T02:55:33.268Z,3.30
2019-05-06T02:58:14.884Z,3.20
2019-05-06T03:01:04.834Z,3.19
2019-05-06T03:03:48.636Z,3.17
2019-05-06T03:06:38.344Z,3.11
2019-05-06T03:09:23.343Z,3.03
2019-05-06T03:12:13.954Z,3.08
2019-05-06T03:14:56.843Z,3.07
2019-05-06T03:17:46.818Z,3.03
2019-05-06T03:20:48.565Z,3.02
2019-05-06T03:26:43.910Z,3.08
2019-05-06T03:29:33.738Z,2.93
2019-05-06T03:32:23.029Z,2.99
2019-05-06T03:35:25.151Z,2.95
2019-05-06T03:37:53.388Z,2.91
2019-05-06T03:40:45.844Z,2.87
2019-05-06T03:43:27.776Z,2.62
2019-05-06T03:46:36.381Z,2.79
2019-05-06T03:49:19.154Z,2.67
2019-05-06T03:52:08.879Z,2.50
2019-05-06T03:54:53.571Z,2.48
2019-05-06T03:57:42.937Z,2.51
2019-05-06T04:00:28.544Z,2.49
2019-05-06T04:03:18.241Z,2.53
2019-05-06T04:06:00.490Z,2.56
2019-05-06T04:08:52.927Z,2.70
2019-05-06T04:11:36.319Z,2.69
2019-05-06T04:20:45.566Z,2.85
2019-05-06T04:23:46.596Z,2.92
2019-05-06T04:26:55.200Z,3.00
2019-05-06T04:29:37.273Z,3.09
2019-05-06T04:32:27.050Z,3.15
2019-05-06T04:35:17.038Z,3.28
2019-05-06T04:38:02.939Z,3.30
2019-05-06T04:40:53.961Z,3.32
2019-05-06T04:43:35.593Z,3.61
2019-05-06T04:46:25.392Z,3.77
2019-05-06T04:49:34.243Z,3.74
2019-05-06T04:52:26.019Z,3.81
2019-05-06T04:55:08.075Z,3.72
2019-05-06T04:57:57.840Z,3.87
2019-05-06T05:00:47.602Z,3.84
2019-05-06T05:03:37.366Z,3.93
2019-05-06T05:06:27.133Z,4.16
2019-05-06T05:09:17.565Z,4.13
2019-05-06T05:15:22.849Z,4.24
2019-05-06T05:18:32.025Z,4.19
2019-05-06T05:21:14.409Z,4.15
2019-05-06T05:23:57.061Z,4.13
2019-05-06T05:26:47.268Z,4.02
2019-05-06T05:29:37.029Z,3.98
2019-05-06T05:32:27.116Z,4.12
2019-05-06T05:35:12.700Z,3.99
2019-05-06T05:38:03.110Z,4.13
2019-05-06T05:40:49.053Z,4.18
2019-05-06T05:46:47.366Z,4.38
2019-05-06T05:49:56.039Z,4.74
2019-05-06T05:52:38.686Z,4.90
2019-05-06T05:55:28.438Z,5.19
2019-05-06T05:58:12.808Z,5.17
2019-05-06T06:04:03.285Z,5.92
2019-05-06T06:06:53.271Z,5.98
2019-05-06T06:12:46.147Z,6.47
2019-05-06T06:24:43.023Z,6.94
2019-05-06T06:31:17.321Z,7.07
2019-05-06T06:37:28.324Z,8.59
2019-05-06T06:40:19.699Z,9.30
2019-05-06T06:46:09.587Z,10.14
2019-05-06T06:48:59.313Z,10.14
2019-05-06T06:51:42.737Z,10.27
2019-05-06T06:57:52.942Z,10.57
2019-05-06T07:01:03.147Z,10.79
2019-05-06T07:09:52.653Z,10.91
2019-05-06T07:12:42.757Z,11.07
2019-05-06T07:15:26.960Z,11.40
2019-05-06T07:18:16.694Z,11.43
2019-05-06T07:24:27.280Z,11.61
2019-05-06T07:33:17.959Z,10.80
2019-05-06T07:36:07.670Z,11.12
2019-05-06T07:38:52.372Z,10.50
2019-05-06T07:48:18.877Z,11.19
2019-05-06T07:51:03.063Z,11.01
2019-05-06T07:53:52.828Z,11.40
2019-05-06T07:56:35.422Z,11.62
2019-05-06T07:59:25.165Z,11.69
2019-05-06T08:02:08.797Z,11.64
2019-05-06T08:04:58.614Z,11.03
2019-05-06T08:07:42.266Z,11.02
2019-05-06T08:10:33.242Z,11.48
2019-05-06T08:13:16.948Z,11.81
2019-05-06T08:19:09.357Z,11.88
2019-05-06T08:25:03.504Z,11.96
2019-05-06T08:27:53.396Z,12.42
2019-05-06T08:30:39.462Z,12.14
2019-05-06T08:33:22.524Z,11.22
2019-05-06T08:39:13.324Z,11.85
2019-05-06T08:42:03.319Z,12.34
2019-05-06T08:44:46.253Z,12.38
2019-05-06T08:47:35.943Z,11.61
2019-05-06T08:50:42.498Z,10.81
2019-05-06T08:53:50.847Z,11.05
2019-05-06T08:56:35.193Z,9.71
2019-05-06T08:59:25.003Z,9.85
2019-05-06T09:02:08.527Z,10.29
2019-05-06T09:04:58.401Z,9.98
2019-05-06T09:07:43.005Z,9.55
2019-05-06T09:10:33.079Z,9.29
2019-05-06T09:13:15.837Z,9.14
2019-05-06T09:16:05.645Z,8.99
2019-05-06T09:18:48.271Z,8.56
2019-05-06T09:24:42.634Z,8.41
2019-05-06T09:27:52.675Z,8.57
2019-05-06T09:36:46.967Z,9.20
2019-05-06T09:39:32.235Z,9.36
2019-05-06T09:42:14.958Z,9.77
2019-05-06T09:45:18.500Z,10.08
2019-05-06T09:51:17.957Z,11.50
2019-05-06T09:54:27.114Z,10.98
2019-05-06T09:57:22.135Z,11.11
2019-05-06T10:00:06.215Z,11.50
2019-05-06T10:02:55.969Z,12.09
2019-05-06T10:05:38.800Z,11.50
2019-05-06T10:08:28.733Z,11.32
2019-05-06T10:11:18.761Z,11.53
2019-05-06T10:14:08.526Z,12.09
2019-05-06T10:16:58.486Z,11.21
2019-05-06T10:19:48.282Z,11.09
2019-05-06T10:22:38.352Z,10.71
2019-05-06T10:25:28.216Z,10.10
2019-05-06T10:34:45.739Z,9.52
2019-05-06T10:41:01.025Z,9.48
2019-05-06T10:43:58.433Z,9.36
2019-05-06T10:46:40.398Z,9.41
2019-05-06T10:49:30.112Z,10.13
2019-05-06T10:55:28.766Z,10.86
2019-05-06T10:58:12.833Z,10.73
2019-05-06T11:04:22.479Z,11.03
2019-05-06T11:07:05.088Z,10.94
2019-05-06T11:09:54.882Z,10.37
2019-05-06T11:15:38.138Z,10.32
2019-05-06T11:18:27.925Z,10.39
2019-05-06T11:21:17.677Z,10.37
2019-05-06T11:24:07.429Z,10.44
2019-05-06T11:26:57.250Z,10.77
2019-05-06T11:35:59.414Z,10.83
2019-05-06T11:38:43.175Z,11.06
2019-05-06T11:41:33.043Z,11.09
2019-05-06T11:44:15.267Z,10.53
2019-05-06T11:47:05.303Z,9.82
2019-05-06T11:52:53.068Z,10.23
2019-05-06T11:55:43.248Z,10.87
2019-05-06T11:58:44.687Z,11.23
2019-05-06T12:01:53.685Z,11.18
2019-05-06T12:04:36.049Z,10.60
2019-05-06T12:07:25.754Z,10.80
2019-05-06T12:10:09.714Z,10.37
2019-05-06T12:12:59.533Z,10.47
2019-05-06T12:15:41.825Z,10.71
2019-05-06T12:18:31.567Z,10.86
2019-05-06T12:21:19.072Z,11.04
2019-05-06T12:24:06.038Z,11.18
2019-05-06T12:26:49.060Z,10.68
2019-05-06T12:35:39.097Z,10.43
2019-05-06T12:41:24.694Z,10.91
2019-05-06T12:44:14.529Z,11.10
2019-05-06T12:49:58.097Z,11.72
2019-05-06T12:52:44.190Z,12.59
2019-05-06T12:55:27.318Z,11.81
2019-05-06T12:58:20.219Z,11.02
2019-05-06T13:01:04.059Z,11.32
2019-05-06T13:03:52.988Z,11.00
2019-05-06T13:06:46.214Z,11.16
2019-05-06T13:09:27.128Z,11.14
2019-05-06T13:15:15.288Z,11.56
2019-05-06T13:18:24.140Z,11.38
2019-05-06T13:21:08.054Z,11.43
2019-05-06T13:26:52.960Z,10.64
2019-05-06T13:29:43.008Z,10.91
2019-05-06T13:32:28.126Z,11.30
2019-05-06T13:35:17.895Z,11.62
2019-05-06T13:38:07.621Z,11.94
2019-05-06T13:40:57.724Z,11.72
2019-05-06T13:44:07.713Z,11.64
2019-05-06T13:46:54.978Z,11.36
2019-05-06T13:53:10.836Z,11.37
2019-05-06T13:55:52.576Z,11.48
2019-05-06T13:58:35.363Z,11.52
2019-05-06T14:04:20.129Z,11.03
2019-05-06T14:07:10.066Z,11.63
2019-05-06T14:10:02.518Z,12.20
2019-05-06T14:12:45.910Z,12.49
2019-05-06T14:15:35.656Z,12.37
2019-05-06T14:18:25.367Z,12.38
2019-05-06T14:21:15.117Z,12.36
2019-05-06T14:23:57.191Z,12.40
2019-05-06T14:36:07.410Z,12.44
2019-05-06T14:38:57.172Z,12.53
2019-05-06T14:41:44.644Z,12.59
2019-05-06T14:44:33.659Z,12.64
2019-05-06T14:50:32.378Z,12.40
2019-05-06T14:53:13.176Z,12.15
2019-05-06T14:59:04.854Z,11.91
2019-05-06T15:01:54.602Z,11.80
2019-05-06T15:04:39.180Z,11.95
2019-05-06T15:07:28.918Z,11.92
2019-05-06T15:10:20.357Z,11.68
2019-05-06T15:13:02.482Z,11.78
2019-05-06T15:15:45.323Z,11.73
2019-05-06T15:18:35.073Z,11.90
2019-05-06T15:21:33.312Z,11.78
2019-05-06T15:24:09.100Z,11.53
2019-05-06T15:26:52.314Z,11.43
2019-05-06T15:32:45.016Z,11.27
2019-05-06T15:35:53.810Z,11.39
2019-05-06T15:38:36.489Z,11.45
2019-05-06T15:41:26.222Z,11.42
2019-05-06T15:44:08.515Z,11.76
2019-05-06T15:46:58.234Z,11.87
2019-05-06T15:49:41.896Z,12.02
2019-05-06T15:52:32.775Z,12.10
2019-05-06T15:55:16.059Z,11.51
2019-05-06T15:58:05.803Z,11.40
2019-05-06T16:00:48.495Z,11.42
2019-05-06T16:03:38.361Z,11.22
2019-05-06T16:06:22.846Z,11.24
2019-05-06T16:09:14.314Z,11.13
2019-05-06T16:11:57.898Z,11.06
2019-05-06T16:14:47.655Z,11.07
2019-05-06T16:17:32.793Z,11.08
2019-05-06T16:20:22.670Z,11.22
2019-05-06T16:23:24.319Z,11.15
2019-05-06T16:26:14.134Z,10.98
2019-05-06T16:28:56.427Z,10.47
2019-05-06T16:31:46.179Z,10.61
2019-05-06T16:34:28.134Z,10.78
2019-05-06T16:37:17.883Z,11.03
2019-05-06T16:40:02.323Z,11.17
2019-05-06T16:45:53.607Z,11.48
2019-05-06T16:48:45.512Z,11.48
2019-05-06T16:51:27.239Z,11.54
2019-05-06T16:54:16.963Z,11.56
2019-05-06T16:57:06.576Z,11.72
2019-05-06T16:59:56.283Z,11.13
2019-05-06T17:08:39.643Z,11.19
2019-05-06T17:11:25.758Z,10.91
2019-05-06T17:13:56.373Z,10.98
2019-05-06T17:16:46.087Z,11.03
2019-05-06T17:19:29.087Z,10.59
2019-05-06T17:22:38.171Z,10.26
2019-05-06T17:25:22.449Z,10.36
2019-05-06T17:28:33.431Z,10.18
2019-05-06T17:34:31.504Z,10.01
2019-05-06T17:37:39.445Z,10.01
2019-05-06T17:40:29.269Z,10.31
2019-05-06T17:43:13.012Z,10.06
2019-05-06T17:46:22.123Z,10.07
2019-05-06T17:49:12.934Z,10.17
2019-05-06T17:54:58.498Z,9.82
2019-05-06T17:57:48.217Z,9.54
2019-05-06T18:00:32.330Z,9.53
2019-05-06T18:06:26.113Z,9.85
2019-05-06T18:09:09.958Z,9.56
2019-05-06T18:12:02.902Z,9.82
2019-05-06T18:14:48.230Z,9.81
2019-05-06T18:17:33.027Z,9.71
2019-05-06T18:20:34.518Z,9.53
2019-05-06T18:23:19.004Z,9.33
2019-05-06T18:29:12.365Z,9.57
2019-05-06T18:32:23.181Z,9.53
2019-05-06T18:35:05.454Z,9.33
2019-05-06T18:37:55.194Z,9.19
2019-05-06T18:40:37.662Z,9.34
2019-05-06T18:43:27.404Z,9.22
2019-05-06T18:46:12.099Z,9.03
2019-05-06T18:49:02.561Z,9.16
2019-05-06T18:51:45.748Z,8.99
2019-05-06T18:54:35.525Z,9.13
2019-05-06T18:57:18.096Z,9.22
2019-05-06T19:03:06.473Z,9.14
2019-05-06T19:05:49.628Z,8.84
2019-05-06T19:11:41.461Z,9.01
2019-05-06T19:17:18.251Z,9.02
2019-05-06T19:20:21.962Z,9.01
2019-05-06T19:23:04.901Z,8.85
2019-05-06T19:25:54.897Z,8.75
2019-05-06T19:28:37.163Z,8.68
2019-05-06T19:31:19.182Z,8.73
2019-05-06T19:34:28.057Z,8.57
2019-05-06T19:37:17.887Z,8.34
2019-05-06T19:40:07.851Z,8.41
2019-05-06T19:43:16.863Z,8.58
2019-05-06T19:45:59.561Z,8.51
2019-05-06T19:48:49.371Z,8.44
2019-05-06T19:51:39.145Z,8.57
2019-05-06T19:54:28.953Z,8.50
2019-05-06T19:57:18.740Z,8.44
2019-05-06T20:00:08.681Z,8.39
2019-05-06T20:02:58.409Z,8.41
2019-05-06T20:06:02.313Z,8.47
2019-05-06T20:11:51.475Z,8.55
2019-05-06T20:14:41.857Z,8.58
2019-05-06T20:17:26.809Z,8.54
2019-05-06T20:20:16.546Z,8.54
2019-05-06T20:22:58.851Z,8.42
2019-05-06T20:25:48.623Z,8.37
2019-05-06T20:28:32.195Z,8.27
2019-05-06T20:31:22.701Z,8.33
2019-05-06T20:34:06.506Z,8.14
2019-05-06T20:36:56.277Z,8.14
2019-05-06T20:39:38.703Z,8.05
2019-05-06T20:42:28.487Z,8.24
2019-05-06T20:45:12.695Z,8.25
2019-05-06T20:48:03.208Z,8.28
2019-05-06T20:50:48.374Z,8.11
2019-05-06T20:53:38.083Z,8.10
2019-05-06T20:56:21.956Z,8.07
2019-05-06T20:59:12.270Z,7.95
2019-05-06T21:01:56.129Z,7.88
2019-05-06T21:04:46.007Z,7.80
2019-05-06T21:10:32.727Z,7.80
2019-05-06T21:13:29.536Z,7.79
2019-05-06T21:16:05.717Z,7.89
2019-05-06T21:18:58.473Z,7.71
2019-05-06T21:24:38.738Z,7.88
2019-05-06T21:27:09.585Z,7.64
2019-05-06T21:29:59.550Z,7.57
2019-05-06T21:32:44.198Z,7.60
2019-05-06T21:35:26.435Z,7.49
2019-05-06T21:38:16.273Z,7.44
2019-05-06T21:41:06.046Z,7.53
2019-05-06T21:43:50.467Z,7.06
2019-05-06T21:46:42.695Z,7.08
2019-05-06T21:49:24.619Z,6.99
2019-05-06T21:52:14.502Z,7.02
2019-05-06T21:55:04.626Z,6.89
2019-05-06T21:57:54.384Z,6.71
2019-05-06T22:01:03.227Z,6.89
2019-05-06T22:03:53.423Z,6.81
2019-05-06T22:06:36.204Z,6.95
2019-05-06T22:09:26.005Z,6.79
2019-05-06T22:12:15.816Z,6.53
2019-05-06T22:15:04.838Z,6.59
2019-05-06T22:17:47.006Z,6.50
2019-05-06T22:20:28.966Z,6.48
2019-05-06T22:23:18.683Z,6.32
2019-05-06T22:26:13.012Z,6.63
2019-05-06T22:28:56.813Z,6.50
2019-05-06T22:31:38.895Z,6.38
2019-05-06T22:34:28.639Z,6.57
2019-05-06T22:37:12.548Z,6.42
2019-05-06T22:40:02.535Z,6.38
2019-05-06T22:42:44.652Z,6.12
2019-05-06T22:45:34.519Z,5.96
2019-05-06T22:48:24.740Z,6.07
2019-05-06T22:51:14.503Z,6.00
2019-05-06T22:54:04.334Z,6.08
2019-05-06T22:57:06.737Z,6.02
2019-05-06T22:59:49.128Z,5.97
2019-05-06T23:02:57.681Z,5.87
2019-05-06T23:05:42.326Z,5.83
2019-05-06T23:08:26.710Z,5.73
2019-05-06T23:11:16.037Z,5.55
2019-05-06T23:13:58.349Z,5.56
2019-05-06T23:16:48.193Z,5.82
2019-05-06T23:19:37.979Z,5.59
2019-05-06T23:22:27.724Z,5.57
2019-05-06T23:25:12.558Z,5.37
2019-05-06T23:31:04.659Z,5.43
2019-05-06T23:33:54.411Z,5.34
2019-05-06T23:36:55.957Z,5.33
2019-05-06T23:40:25.537Z,5.30
2019-05-06T23:43:26.760Z,5.39
2019-05-06T23:46:54.663Z,5.45
2019-05-06T23:49:57.274Z,5.48
2019-05-06T23:53:25.163Z,5.57
2019-05-06T23:56:26.868Z,5.46
